Newport, ME (04953)

8:49 AM EDT on July 26, 2016 (GMT -0400)
Downtown Newport | | Change Station

Elev 227 ft 44.84 °N, 69.28 °W | Updated 1 second ago

Mostly Cloudy
Mostly Cloudy
76.1 °F
Feels Like 75 °F
N
0.0
Wind Variable Wind from ESE
Gusts 3.0 mph

Today
High -- | Low -- °F
--% Chance of Precip.
Yesterday
High -- | Low -- °F
Precip. -- in
Pressure 29.74 in
Visibility 10.0 miles
Clouds Scattered Clouds 700 ft
Mostly Cloudy 3000 ft
Mostly Cloudy 10000 ft
Heat Index 75 °F
Dew Point 76 °F
Humidity 100%
Rainfall 0.00 in
Snow Depth Not available.
5:16 AM 8:09 PM
Waning Gibbous, 55% visible
SPECI KBGR 261233Z 25004KT 10SM SCT007 BKN030 BKN100 24/19 A2974 RMK AO2 T02390194
Pressure 29.74 in
Visibility 10.0 miles
Clouds Scattered Clouds 700 ft
Mostly Cloudy 3000 ft
Mostly Cloudy 10000 ft
Heat Index 75 °F
Dew Point 76 °F
Humidity 100%
Rainfall 0.00 in
Snow Depth Not available.
5:16 AM 8:09 PM
Waning Gibbous, 55% visible
SPECI KBGR 261233Z 25004KT 10SM SCT007 BKN030 BKN100 24/19 A2974 RMK AO2 T02390194

10-Day Weather Forecast

Almanac

Astronomy

Jul. 26, 2016 Rise Set
Actual Time
Civil Twilight
Nautical Twilight
Astronomical Twilight
Moon
Length of Visible Light
Length of Day
Tomorrow will be .
, % of the Moon is Illuminated

Today's Extremes

State Highs State Lows

Community

WunderPhotos

Upload Photos

1,927,581 photos uploaded!

WunderBlog® & News

Nearby

Air Quality

  Air Quality AQ Index Pollutant
Not available.

Snow Depth

Station Depth Elevation

Earthquake Activity

City Distance Mag. Time & Date
Minimum magnitude displayed is 2.5.

Coastal Water Temperatures

Place Temperature

Stations

Nearby Weather Stations

Station Location Temp. Windchill Dew Point Humidity Wind Precip. Elev Updated Type
                   

Watches & Warnings

There are currently no watches in effect.